sensor_id;sensor_type;location;lat;lon;timestamp;temperature;humidity
810;DHT22;387;48.772;9.186;2023-04-27T00:01:48;9.70;69.90
810;DHT22;387;48.772;9.186;2023-04-27T00:04:13;9.70;69.90
810;DHT22;387;48.772;9.186;2023-04-27T00:06:41;9.60;69.80
810;DHT22;387;48.772;9.186;2023-04-27T00:09:06;9.60;69.90
810;DHT22;387;48.772;9.186;2023-04-27T00:11:32;9.60;70.50
810;DHT22;387;48.772;9.186;2023-04-27T00:13:58;9.60;70.50
810;DHT22;387;48.772;9.186;2023-04-27T00:16:24;9.70;70.40
810;DHT22;387;48.772;9.186;2023-04-27T00:18:49;9.60;70.20
810;DHT22;387;48.772;9.186;2023-04-27T00:21:15;9.60;70.10
810;DHT22;387;48.772;9.186;2023-04-27T00:23:41;9.50;70.20
810;DHT22;387;48.772;9.186;2023-04-27T00:26:06;9.50;69.80
810;DHT22;387;48.772;9.186;2023-04-27T00:28:32;9.50;69.50
810;DHT22;387;48.772;9.186;2023-04-27T00:30:57;9.40;69.70
810;DHT22;387;48.772;9.186;2023-04-27T00:33:23;9.40;69.70
810;DHT22;387;48.772;9.186;2023-04-27T00:35:48;9.40;69.90
810;DHT22;387;48.772;9.186;2023-04-27T00:38:14;9.50;70.80
810;DHT22;387;48.772;9.186;2023-04-27T00:40:39;9.60;70.80
810;DHT22;387;48.772;9.186;2023-04-27T00:43:05;9.60;71.00
810;DHT22;387;48.772;9.186;2023-04-27T00:45:31;9.50;70.70
810;DHT22;387;48.772;9.186;2023-04-27T00:47:57;9.40;70.70
810;DHT22;387;48.772;9.186;2023-04-27T00:50:29;9.40;70.70
810;DHT22;387;48.772;9.186;2023-04-27T00:52:55;9.40;70.80
810;DHT22;387;48.772;9.186;2023-04-27T00:55:22;9.40;70.80
810;DHT22;387;48.772;9.186;2023-04-27T00:57:47;9.50;71.00
810;DHT22;387;48.772;9.186;2023-04-27T01:00:13;9.50;71.10
810;DHT22;387;48.772;9.186;2023-04-27T01:02:40;9.50;71.30
810;DHT22;387;48.772;9.186;2023-04-27T01:05:06;9.60;71.10
810;DHT22;387;48.772;9.186;2023-04-27T01:07:36;9.50;71.00
810;DHT22;387;48.772;9.186;2023-04-27T01:10:02;9.50;71.30
810;DHT22;387;48.772;9.186;2023-04-27T01:12:28;9.50;71.30
810;DHT22;387;48.772;9.186;2023-04-27T01:14:53;9.50;71.30
810;DHT22;387;48.772;9.186;2023-04-27T01:17:19;9.50;71.40
810;DHT22;387;48.772;9.186;2023-04-27T01:19:45;9.40;71.40
810;DHT22;387;48.772;9.186;2023-04-27T01:22:10;9.40;71.30
810;DHT22;387;48.772;9.186;2023-04-27T01:24:36;9.30;71.10
810;DHT22;387;48.772;9.186;2023-04-27T01:27:01;9.30;71.40
810;DHT22;387;48.772;9.186;2023-04-27T01:29:28;9.20;71.80
810;DHT22;387;48.772;9.186;2023-04-27T01:31:54;9.30;71.80
810;DHT22;387;48.772;9.186;2023-04-27T01:34:20;9.30;71.80
810;DHT22;387;48.772;9.186;2023-04-27T01:36:45;9.30;72.10
810;DHT22;387;48.772;9.186;2023-04-27T01:39:11;9.20;72.40
810;DHT22;387;48.772;9.186;2023-04-27T01:41:36;9.20;72.60
810;DHT22;387;48.772;9.186;2023-04-27T01:44:02;9.20;72.60
810;DHT22;387;48.772;9.186;2023-04-27T01:46:27;9.20;72.70
810;DHT22;387;48.772;9.186;2023-04-27T01:48:53;9.20;72.70
810;DHT22;387;48.772;9.186;2023-04-27T01:51:19;9.20;72.90
810;DHT22;387;48.772;9.186;2023-04-27T01:53:44;9.10;73.00
810;DHT22;387;48.772;9.186;2023-04-27T01:56:10;9.10;73.00
810;DHT22;387;48.772;9.186;2023-04-27T01:58:36;9.20;73.00
810;DHT22;387;48.772;9.186;2023-04-27T02:01:01;9.20;73.20
810;DHT22;387;48.772;9.186;2023-04-27T02:03:27;9.10;73.20
810;DHT22;387;48.772;9.186;2023-04-27T02:05:52;9.00;73.00
810;DHT22;387;48.772;9.186;2023-04-27T02:08:18;9.00;73.20
810;DHT22;387;48.772;9.186;2023-04-27T02:10:44;9.00;73.30
810;DHT22;387;48.772;9.186;2023-04-27T02:13:09;9.00;73.50
810;DHT22;387;48.772;9.186;2023-04-27T02:15:35;9.00;73.50
810;DHT22;387;48.772;9.186;2023-04-27T02:18:01;8.90;73.20
810;DHT22;387;48.772;9.186;2023-04-27T02:20:29;8.90;73.00
810;DHT22;387;48.772;9.186;2023-04-27T02:22:55;8.90;73.00
810;DHT22;387;48.772;9.186;2023-04-27T02:25:21;8.90;73.00
810;DHT22;387;48.772;9.186;2023-04-27T02:27:46;8.90;73.00
810;DHT22;387;48.772;9.186;2023-04-27T02:30:12;8.90;73.20
810;DHT22;387;48.772;9.186;2023-04-27T02:32:38;8.80;73.30
810;DHT22;387;48.772;9.186;2023-04-27T02:35:04;8.80;73.50
810;DHT22;387;48.772;9.186;2023-04-27T02:37:30;8.80;73.50
810;DHT22;387;48.772;9.186;2023-04-27T02:39:56;8.80;73.50
810;DHT22;387;48.772;9.186;2023-04-27T02:42:21;8.80;73.30
810;DHT22;387;48.772;9.186;2023-04-27T02:44:47;8.90;73.50
810;DHT22;387;48.772;9.186;2023-04-27T02:47:13;8.80;73.50
810;DHT22;387;48.772;9.186;2023-04-27T02:49:38;8.80;73.60
810;DHT22;387;48.772;9.186;2023-04-27T02:52:04;8.80;73.70
810;DHT22;387;48.772;9.186;2023-04-27T02:54:30;8.80;73.70
810;DHT22;387;48.772;9.186;2023-04-27T02:56:56;8.70;73.90
810;DHT22;387;48.772;9.186;2023-04-27T02:59:21;8.70;74.00
810;DHT22;387;48.772;9.186;2023-04-27T03:01:47;8.60;74.30
810;DHT22;387;48.772;9.186;2023-04-27T03:04:13;8.70;74.30
810;DHT22;387;48.772;9.186;2023-04-27T03:06:42;8.80;74.30
810;DHT22;387;48.772;9.186;2023-04-27T03:09:08;8.80;74.20
810;DHT22;387;48.772;9.186;2023-04-27T03:11:37;8.90;74.00
810;DHT22;387;48.772;9.186;2023-04-27T03:14:03;9.00;74.00
810;DHT22;387;48.772;9.186;2023-04-27T03:16:32;9.00;73.90
810;DHT22;387;48.772;9.186;2023-04-27T03:18:58;9.00;73.90
810;DHT22;387;48.772;9.186;2023-04-27T03:21:23;8.90;73.90
810;DHT22;387;48.772;9.186;2023-04-27T03:23:49;8.90;73.90
810;DHT22;387;48.772;9.186;2023-04-27T03:26:15;8.90;73.90
810;DHT22;387;48.772;9.186;2023-04-27T03:28:40;9.00;73.70
810;DHT22;387;48.772;9.186;2023-04-27T03:31:08;9.00;73.70
810;DHT22;387;48.772;9.186;2023-04-27T03:33:34;9.00;73.70
810;DHT22;387;48.772;9.186;2023-04-27T03:36:01;9.00;73.70
810;DHT22;387;48.772;9.186;2023-04-27T03:38:27;9.00;73.70
810;DHT22;387;48.772;9.186;2023-04-27T03:40:53;9.00;73.70
810;DHT22;387;48.772;9.186;2023-04-27T03:43:19;9.00;73.90
810;DHT22;387;48.772;9.186;2023-04-27T03:45:46;9.00;73.90
810;DHT22;387;48.772;9.186;2023-04-27T03:48:12;9.00;74.00
810;DHT22;387;48.772;9.186;2023-04-27T03:50:39;9.00;74.00
810;DHT22;387;48.772;9.186;2023-04-27T03:53:05;9.00;74.00
810;DHT22;387;48.772;9.186;2023-04-27T03:55:31;8.90;74.20
810;DHT22;387;48.772;9.186;2023-04-27T03:57:56;9.00;74.20
810;DHT22;387;48.772;9.186;2023-04-27T04:00:22;9.00;74.20
810;DHT22;387;48.772;9.186;2023-04-27T04:02:48;8.90;74.20
810;DHT22;387;48.772;9.186;2023-04-27T04:05:14;9.00;74.30
810;DHT22;387;48.772;9.186;2023-04-27T04:07:40;8.90;74.60
810;DHT22;387;48.772;9.186;2023-04-27T04:10:09;8.90;74.80
810;DHT22;387;48.772;9.186;2023-04-27T04:12:35;8.90;74.90
810;DHT22;387;48.772;9.186;2023-04-27T04:15:02;8.90;75.10
810;DHT22;387;48.772;9.186;2023-04-27T04:17:27;8.90;75.10
810;DHT22;387;48.772;9.186;2023-04-27T04:19:53;8.90;74.80
810;DHT22;387;48.772;9.186;2023-04-27T04:22:18;8.90;74.60
810;DHT22;387;48.772;9.186;2023-04-27T04:24:44;8.80;74.60
810;DHT22;387;48.772;9.186;2023-04-27T04:27:10;8.90;74.60
810;DHT22;387;48.772;9.186;2023-04-27T04:29:35;8.90;74.30
810;DHT22;387;48.772;9.186;2023-04-27T04:32:01;8.80;74.30
810;DHT22;387;48.772;9.186;2023-04-27T04:34:27;8.80;74.20
810;DHT22;387;48.772;9.186;2023-04-27T04:36:53;8.90;74.60
810;DHT22;387;48.772;9.186;2023-04-27T04:39:22;8.90;74.60
810;DHT22;387;48.772;9.186;2023-04-27T04:41:48;8.90;74.30
810;DHT22;387;48.772;9.186;2023-04-27T04:44:14;8.90;74.60
810;DHT22;387;48.772;9.186;2023-04-27T04:46:40;8.90;74.30
810;DHT22;387;48.772;9.186;2023-04-27T04:49:06;8.90;74.60
810;DHT22;387;48.772;9.186;2023-04-27T04:51:32;8.90;74.90
810;DHT22;387;48.772;9.186;2023-04-27T04:53:57;8.90;75.20
810;DHT22;387;48.772;9.186;2023-04-27T04:56:23;9.00;75.20
810;DHT22;387;48.772;9.186;2023-04-27T04:58:48;9.00;75.10
810;DHT22;387;48.772;9.186;2023-04-27T05:01:14;9.10;74.60
810;DHT22;387;48.772;9.186;2023-04-27T05:03:40;9.10;74.50
810;DHT22;387;48.772;9.186;2023-04-27T05:06:05;9.20;74.20
810;DHT22;387;48.772;9.186;2023-04-27T05:08:31;9.20;73.90
810;DHT22;387;48.772;9.186;2023-04-27T05:10:57;9.20;73.60
810;DHT22;387;48.772;9.186;2023-04-27T05:13:22;9.20;73.50
810;DHT22;387;48.772;9.186;2023-04-27T05:15:51;9.30;73.30
810;DHT22;387;48.772;9.186;2023-04-27T05:18:17;9.30;73.50
810;DHT22;387;48.772;9.186;2023-04-27T05:20:42;9.40;73.50
810;DHT22;387;48.772;9.186;2023-04-27T05:23:08;9.50;73.50
810;DHT22;387;48.772;9.186;2023-04-27T05:25:34;9.50;73.30
810;DHT22;387;48.772;9.186;2023-04-27T05:28:06;9.60;73.30
810;DHT22;387;48.772;9.186;2023-04-27T05:30:33;9.70;73.20
810;DHT22;387;48.772;9.186;2023-04-27T05:32:58;9.80;73.00
810;DHT22;387;48.772;9.186;2023-04-27T05:35:24;9.90;72.60
810;DHT22;387;48.772;9.186;2023-04-27T05:37:49;10.00;72.10
810;DHT22;387;48.772;9.186;2023-04-27T05:40:15;10.00;72.00
810;DHT22;387;48.772;9.186;2023-04-27T05:42:41;10.10;72.00
810;DHT22;387;48.772;9.186;2023-04-27T05:45:07;10.00;72.10
810;DHT22;387;48.772;9.186;2023-04-27T05:47:32;10.00;72.30
810;DHT22;387;48.772;9.186;2023-04-27T05:49:58;9.90;72.60
810;DHT22;387;48.772;9.186;2023-04-27T05:52:23;9.90;72.90
810;DHT22;387;48.772;9.186;2023-04-27T05:54:55;9.90;72.90
810;DHT22;387;48.772;9.186;2023-04-27T05:57:21;9.80;72.70
810;DHT22;387;48.772;9.186;2023-04-27T05:59:47;9.90;72.90
810;DHT22;387;48.772;9.186;2023-04-27T06:02:12;10.00;72.60
810;DHT22;387;48.772;9.186;2023-04-27T06:04:38;10.10;72.40
810;DHT22;387;48.772;9.186;2023-04-27T06:07:10;10.20;72.10
810;DHT22;387;48.772;9.186;2023-04-27T06:09:37;10.30;72.00
810;DHT22;387;48.772;9.186;2023-04-27T06:12:06;10.30;71.60
810;DHT22;387;48.772;9.186;2023-04-27T06:14:36;10.30;71.30
810;DHT22;387;48.772;9.186;2023-04-27T06:17:02;10.40;71.30
810;DHT22;387;48.772;9.186;2023-04-27T06:19:28;10.50;71.60
810;DHT22;387;48.772;9.186;2023-04-27T06:21:54;10.60;71.40
810;DHT22;387;48.772;9.186;2023-04-27T06:24:20;10.80;71.10
810;DHT22;387;48.772;9.186;2023-04-27T06:26:49;10.90;70.70
810;DHT22;387;48.772;9.186;2023-04-27T06:29:15;11.10;70.20
810;DHT22;387;48.772;9.186;2023-04-27T06:31:40;11.20;69.90
810;DHT22;387;48.772;9.186;2023-04-27T06:34:06;11.40;69.40
810;DHT22;387;48.772;9.186;2023-04-27T06:36:32;11.50;68.80
810;DHT22;387;48.772;9.186;2023-04-27T06:38:58;11.60;68.30
810;DHT22;387;48.772;9.186;2023-04-27T06:41:25;11.70;68.00
810;DHT22;387;48.772;9.186;2023-04-27T06:43:51;11.80;67.60
810;DHT22;387;48.772;9.186;2023-04-27T06:46:17;11.80;67.50
810;DHT22;387;48.772;9.186;2023-04-27T06:48:43;11.80;67.60
810;DHT22;387;48.772;9.186;2023-04-27T06:51:09;11.90;67.90
810;DHT22;387;48.772;9.186;2023-04-27T06:53:35;12.00;67.90
810;DHT22;387;48.772;9.186;2023-04-27T06:56:01;12.00;67.50
810;DHT22;387;48.772;9.186;2023-04-27T06:58:26;11.90;67.60
810;DHT22;387;48.772;9.186;2023-04-27T07:00:52;11.90;67.70
810;DHT22;387;48.772;9.186;2023-04-27T07:03:19;11.90;68.00
810;DHT22;387;48.772;9.186;2023-04-27T07:05:45;11.80;68.20
810;DHT22;387;48.772;9.186;2023-04-27T07:08:11;11.80;68.50
810;DHT22;387;48.772;9.186;2023-04-27T07:10:37;12.00;68.00
810;DHT22;387;48.772;9.186;2023-04-27T07:13:02;12.10;67.90
810;DHT22;387;48.772;9.186;2023-04-27T07:15:29;12.30;67.20
810;DHT22;387;48.772;9.186;2023-04-27T07:17:55;12.40;66.70
810;DHT22;387;48.772;9.186;2023-04-27T07:20:21;12.60;66.30
810;DHT22;387;48.772;9.186;2023-04-27T07:22:47;12.60;65.80
810;DHT22;387;48.772;9.186;2023-04-27T07:25:13;12.60;66.00
810;DHT22;387;48.772;9.186;2023-04-27T07:27:38;12.60;66.30
810;DHT22;387;48.772;9.186;2023-04-27T07:30:06;12.60;66.00
810;DHT22;387;48.772;9.186;2023-04-27T07:32:35;12.70;66.30
810;DHT22;387;48.772;9.186;2023-04-27T07:35:03;12.70;65.70
810;DHT22;387;48.772;9.186;2023-04-27T07:37:30;12.60;65.60
810;DHT22;387;48.772;9.186;2023-04-27T07:39:55;12.70;65.30
810;DHT22;387;48.772;9.186;2023-04-27T07:42:22;12.70;65.30
810;DHT22;387;48.772;9.186;2023-04-27T07:44:47;12.80;65.10
810;DHT22;387;48.772;9.186;2023-04-27T07:47:14;12.90;64.70
810;DHT22;387;48.772;9.186;2023-04-27T07:49:40;12.90;64.70
810;DHT22;387;48.772;9.186;2023-04-27T07:52:06;12.90;64.20
810;DHT22;387;48.772;9.186;2023-04-27T07:54:31;12.90;63.70
810;DHT22;387;48.772;9.186;2023-04-27T07:56:57;13.00;63.80
810;DHT22;387;48.772;9.186;2023-04-27T07:59:22;13.20;61.60
810;DHT22;387;48.772;9.186;2023-04-27T08:01:48;13.10;61.30
810;DHT22;387;48.772;9.186;2023-04-27T08:04:14;13.20;60.30
810;DHT22;387;48.772;9.186;2023-04-27T08:06:40;13.20;60.60
810;DHT22;387;48.772;9.186;2023-04-27T08:09:05;13.20;60.10
810;DHT22;387;48.772;9.186;2023-04-27T08:11:32;13.10;60.10
810;DHT22;387;48.772;9.186;2023-04-27T08:13:57;13.20;60.40
810;DHT22;387;48.772;9.186;2023-04-27T08:16:23;13.30;60.00
810;DHT22;387;48.772;9.186;2023-04-27T08:18:49;13.30;58.70
810;DHT22;387;48.772;9.186;2023-04-27T08:21:15;13.30;59.50
810;DHT22;387;48.772;9.186;2023-04-27T08:23:41;13.30;59.50
810;DHT22;387;48.772;9.186;2023-04-27T08:26:06;13.40;59.70
810;DHT22;387;48.772;9.186;2023-04-27T08:28:32;13.50;60.40
810;DHT22;387;48.772;9.186;2023-04-27T08:30:57;13.60;60.40
810;DHT22;387;48.772;9.186;2023-04-27T08:33:23;13.70;60.90
810;DHT22;387;48.772;9.186;2023-04-27T08:35:49;13.80;59.90
810;DHT22;387;48.772;9.186;2023-04-27T08:38:17;13.90;56.60
810;DHT22;387;48.772;9.186;2023-04-27T08:40:43;13.90;56.90
810;DHT22;387;48.772;9.186;2023-04-27T08:43:09;13.90;56.10
810;DHT22;387;48.772;9.186;2023-04-27T08:45:35;13.90;56.90
810;DHT22;387;48.772;9.186;2023-04-27T08:48:01;14.00;57.30
810;DHT22;387;48.772;9.186;2023-04-27T08:50:26;14.00;56.10
810;DHT22;387;48.772;9.186;2023-04-27T08:52:52;14.10;56.40
810;DHT22;387;48.772;9.186;2023-04-27T08:55:18;14.20;57.70
810;DHT22;387;48.772;9.186;2023-04-27T08:57:56;14.20;58.40
810;DHT22;387;48.772;9.186;2023-04-27T09:00:26;14.30;59.70
810;DHT22;387;48.772;9.186;2023-04-27T09:02:52;14.40;59.90
810;DHT22;387;48.772;9.186;2023-04-27T09:05:19;14.50;59.70
810;DHT22;387;48.772;9.186;2023-04-27T09:08:02;14.50;58.00
810;DHT22;387;48.772;9.186;2023-04-27T09:10:32;14.60;58.00
810;DHT22;387;48.772;9.186;2023-04-27T09:13:07;14.70;57.40
810;DHT22;387;48.772;9.186;2023-04-27T09:15:47;14.70;58.10
810;DHT22;387;48.772;9.186;2023-04-27T09:20:43;14.70;57.80
810;DHT22;387;48.772;9.186;2023-04-27T09:23:09;14.80;58.10
810;DHT22;387;48.772;9.186;2023-04-27T09:25:34;14.90;58.00
810;DHT22;387;48.772;9.186;2023-04-27T09:28:00;15.10;57.00
810;DHT22;387;48.772;9.186;2023-04-27T09:30:27;15.30;56.80
810;DHT22;387;48.772;9.186;2023-04-27T09:32:58;15.40;54.90
810;DHT22;387;48.772;9.186;2023-04-27T09:35:27;15.40;54.80
810;DHT22;387;48.772;9.186;2023-04-27T09:37:54;15.40;54.20
810;DHT22;387;48.772;9.186;2023-04-27T09:40:21;15.30;53.60
810;DHT22;387;48.772;9.186;2023-04-27T09:42:58;15.30;53.70
810;DHT22;387;48.772;9.186;2023-04-27T09:45:25;15.30;54.10
810;DHT22;387;48.772;9.186;2023-04-27T09:47:52;15.20;54.40
810;DHT22;387;48.772;9.186;2023-04-27T09:50:17;15.30;54.40
810;DHT22;387;48.772;9.186;2023-04-27T09:52:45;15.30;53.80
810;DHT22;387;48.772;9.186;2023-04-27T09:55:15;15.20;54.40
810;DHT22;387;48.772;9.186;2023-04-27T10:03:27;15.20;53.70
810;DHT22;387;48.772;9.186;2023-04-27T10:08:35;15.70;53.00
810;DHT22;387;48.772;9.186;2023-04-27T10:11:17;15.70;52.50
810;DHT22;387;48.772;9.186;2023-04-27T10:13:53;15.60;52.10
810;DHT22;387;48.772;9.186;2023-04-27T10:16:20;15.50;53.00
810;DHT22;387;48.772;9.186;2023-04-27T10:18:55;15.60;52.50
810;DHT22;387;48.772;9.186;2023-04-27T10:21:21;15.90;52.80
810;DHT22;387;48.772;9.186;2023-04-27T10:23:49;15.90;52.40
810;DHT22;387;48.772;9.186;2023-04-27T10:26:26;16.20;51.30
810;DHT22;387;48.772;9.186;2023-04-27T10:29:08;16.40;51.20
810;DHT22;387;48.772;9.186;2023-04-27T10:31:34;16.70;50.70
810;DHT22;387;48.772;9.186;2023-04-27T10:34:10;17.10;50.30
810;DHT22;387;48.772;9.186;2023-04-27T10:36:39;17.40;48.20
810;DHT22;387;48.772;9.186;2023-04-27T10:39:20;17.20;47.80
810;DHT22;387;48.772;9.186;2023-04-27T10:41:51;16.90;48.70
810;DHT22;387;48.772;9.186;2023-04-27T10:44:20;16.90;49.00
810;DHT22;387;48.772;9.186;2023-04-27T10:46:50;17.20;49.00
810;DHT22;387;48.772;9.186;2023-04-27T10:49:16;17.70;48.10
810;DHT22;387;48.772;9.186;2023-04-27T10:51:42;18.10;47.30
810;DHT22;387;48.772;9.186;2023-04-27T10:54:07;18.40;45.90
810;DHT22;387;48.772;9.186;2023-04-27T10:56:33;18.30;45.80
810;DHT22;387;48.772;9.186;2023-04-27T10:59:03;18.10;46.60
810;DHT22;387;48.772;9.186;2023-04-27T11:01:29;17.80;46.70
810;DHT22;387;48.772;9.186;2023-04-27T11:03:56;17.90;46.30
810;DHT22;387;48.772;9.186;2023-04-27T11:06:22;17.90;46.20
810;DHT22;387;48.772;9.186;2023-04-27T11:08:47;18.20;46.10
810;DHT22;387;48.772;9.186;2023-04-27T11:11:14;18.40;45.40
810;DHT22;387;48.772;9.186;2023-04-27T11:13:42;18.70;45.40
810;DHT22;387;48.772;9.186;2023-04-27T11:16:08;18.50;44.90
810;DHT22;387;48.772;9.186;2023-04-27T11:18:36;18.40;45.00
810;DHT22;387;48.772;9.186;2023-04-27T11:21:15;18.00;45.80
810;DHT22;387;48.772;9.186;2023-04-27T11:23:42;18.00;46.30
810;DHT22;387;48.772;9.186;2023-04-27T11:26:09;18.30;44.70
810;DHT22;387;48.772;9.186;2023-04-27T11:28:35;18.50;44.60
810;DHT22;387;48.772;9.186;2023-04-27T11:31:01;18.50;43.80
810;DHT22;387;48.772;9.186;2023-04-27T11:33:28;18.20;44.60
810;DHT22;387;48.772;9.186;2023-04-27T11:35:54;18.20;44.70
810;DHT22;387;48.772;9.186;2023-04-27T11:38:20;18.30;45.90
810;DHT22;387;48.772;9.186;2023-04-27T11:40:57;18.00;46.20
810;DHT22;387;48.772;9.186;2023-04-27T11:43:25;17.40;47.50
810;DHT22;387;48.772;9.186;2023-04-27T11:45:51;17.50;48.10
810;DHT22;387;48.772;9.186;2023-04-27T11:48:18;17.70;47.70
810;DHT22;387;48.772;9.186;2023-04-27T11:50:47;18.20;46.60
810;DHT22;387;48.772;9.186;2023-04-27T11:53:13;18.70;45.50
810;DHT22;387;48.772;9.186;2023-04-27T11:55:51;19.00;44.60
810;DHT22;387;48.772;9.186;2023-04-27T11:58:16;19.10;44.50
810;DHT22;387;48.772;9.186;2023-04-27T12:00:42;18.80;44.10
810;DHT22;387;48.772;9.186;2023-04-27T12:03:08;18.70;44.20
810;DHT22;387;48.772;9.186;2023-04-27T12:05:34;18.50;45.10
810;DHT22;387;48.772;9.186;2023-04-27T12:08:00;18.20;45.40
810;DHT22;387;48.772;9.186;2023-04-27T12:10:26;18.00;45.90
810;DHT22;387;48.772;9.186;2023-04-27T12:12:52;18.00;46.30
810;DHT22;387;48.772;9.186;2023-04-27T12:15:17;17.90;46.10
810;DHT22;387;48.772;9.186;2023-04-27T12:17:43;18.20;45.40
810;DHT22;387;48.772;9.186;2023-04-27T12:20:09;18.70;44.30
810;DHT22;387;48.772;9.186;2023-04-27T12:22:35;19.00;44.60
810;DHT22;387;48.772;9.186;2023-04-27T12:25:01;19.40;43.80
810;DHT22;387;48.772;9.186;2023-04-27T12:27:27;19.50;43.70
810;DHT22;387;48.772;9.186;2023-04-27T12:29:52;19.30;43.20
810;DHT22;387;48.772;9.186;2023-04-27T12:32:19;19.20;43.70
810;DHT22;387;48.772;9.186;2023-04-27T12:34:45;19.00;44.70
810;DHT22;387;48.772;9.186;2023-04-27T12:37:11;18.80;44.30
810;DHT22;387;48.772;9.186;2023-04-27T12:39:36;18.50;45.00
810;DHT22;387;48.772;9.186;2023-04-27T12:42:02;18.70;45.40
810;DHT22;387;48.772;9.186;2023-04-27T12:44:28;19.30;43.80
810;DHT22;387;48.772;9.186;2023-04-27T12:46:54;19.60;42.40
810;DHT22;387;48.772;9.186;2023-04-27T12:49:19;19.80;42.20
810;DHT22;387;48.772;9.186;2023-04-27T12:51:45;20.10;41.80
810;DHT22;387;48.772;9.186;2023-04-27T12:54:12;20.00;41.10
810;DHT22;387;48.772;9.186;2023-04-27T12:56:38;20.10;41.10
810;DHT22;387;48.772;9.186;2023-04-27T12:59:04;19.80;41.20
810;DHT22;387;48.772;9.186;2023-04-27T13:01:30;19.80;42.20
810;DHT22;387;48.772;9.186;2023-04-27T13:03:58;20.00;41.80
810;DHT22;387;48.772;9.186;2023-04-27T13:06:25;20.20;41.20
810;DHT22;387;48.772;9.186;2023-04-27T13:08:51;19.90;41.80
810;DHT22;387;48.772;9.186;2023-04-27T13:11:17;19.80;41.60
810;DHT22;387;48.772;9.186;2023-04-27T13:13:43;19.70;42.30
810;DHT22;387;48.772;9.186;2023-04-27T13:16:09;19.90;43.20
810;DHT22;387;48.772;9.186;2023-04-27T13:18:36;20.00;42.70
810;DHT22;387;48.772;9.186;2023-04-27T13:21:02;20.10;42.30
810;DHT22;387;48.772;9.186;2023-04-27T13:23:29;20.30;42.60
810;DHT22;387;48.772;9.186;2023-04-27T13:25:56;20.50;41.50
810;DHT22;387;48.772;9.186;2023-04-27T13:28:21;20.60;41.00
810;DHT22;387;48.772;9.186;2023-04-27T13:30:47;20.30;41.90
810;DHT22;387;48.772;9.186;2023-04-27T13:33:13;20.50;41.80
810;DHT22;387;48.772;9.186;2023-04-27T13:35:39;20.50;41.20
810;DHT22;387;48.772;9.186;2023-04-27T13:38:05;20.40;40.70
810;DHT22;387;48.772;9.186;2023-04-27T13:40:31;20.30;41.10
810;DHT22;387;48.772;9.186;2023-04-27T13:42:56;20.10;42.00
810;DHT22;387;48.772;9.186;2023-04-27T13:45:23;20.20;41.90
810;DHT22;387;48.772;9.186;2023-04-27T13:47:48;20.30;42.20
810;DHT22;387;48.772;9.186;2023-04-27T13:50:14;20.40;40.80
810;DHT22;387;48.772;9.186;2023-04-27T13:52:40;20.30;40.80
810;DHT22;387;48.772;9.186;2023-04-27T13:55:07;20.30;40.80
810;DHT22;387;48.772;9.186;2023-04-27T13:57:33;20.30;40.70
810;DHT22;387;48.772;9.186;2023-04-27T14:00:00;20.30;40.70
810;DHT22;387;48.772;9.186;2023-04-27T14:02:27;20.50;40.60
810;DHT22;387;48.772;9.186;2023-04-27T14:04:53;20.80;40.20
810;DHT22;387;48.772;9.186;2023-04-27T14:07:19;21.20;39.40
810;DHT22;387;48.772;9.186;2023-04-27T14:09:45;21.40;39.10
810;DHT22;387;48.772;9.186;2023-04-27T14:12:11;21.20;38.80
810;DHT22;387;48.772;9.186;2023-04-27T14:14:37;20.90;39.40
810;DHT22;387;48.772;9.186;2023-04-27T14:17:03;20.70;40.00
810;DHT22;387;48.772;9.186;2023-04-27T14:19:29;20.80;40.00
810;DHT22;387;48.772;9.186;2023-04-27T14:21:55;20.70;39.60
810;DHT22;387;48.772;9.186;2023-04-27T14:24:21;20.90;39.40
810;DHT22;387;48.772;9.186;2023-04-27T14:26:47;21.20;38.80
810;DHT22;387;48.772;9.186;2023-04-27T14:29:13;21.10;39.10
810;DHT22;387;48.772;9.186;2023-04-27T14:31:39;21.00;39.80
810;DHT22;387;48.772;9.186;2023-04-27T14:34:06;20.90;39.80
810;DHT22;387;48.772;9.186;2023-04-27T14:36:32;20.60;40.40
810;DHT22;387;48.772;9.186;2023-04-27T14:38:58;20.50;40.40
810;DHT22;387;48.772;9.186;2023-04-27T14:41:25;20.20;41.10
810;DHT22;387;48.772;9.186;2023-04-27T14:43:51;20.00;41.10
810;DHT22;387;48.772;9.186;2023-04-27T14:46:17;20.10;41.20
810;DHT22;387;48.772;9.186;2023-04-27T14:48:43;20.20;41.40
810;DHT22;387;48.772;9.186;2023-04-27T14:51:09;20.10;41.20
810;DHT22;387;48.772;9.186;2023-04-27T14:53:35;20.00;41.40
810;DHT22;387;48.772;9.186;2023-04-27T14:56:01;19.80;42.20
810;DHT22;387;48.772;9.186;2023-04-27T14:58:26;19.80;42.60
810;DHT22;387;48.772;9.186;2023-04-27T15:00:52;19.70;42.60
810;DHT22;387;48.772;9.186;2023-04-27T15:03:17;19.40;42.40
810;DHT22;387;48.772;9.186;2023-04-27T15:05:44;19.20;43.40
810;DHT22;387;48.772;9.186;2023-04-27T15:08:10;19.50;42.80
810;DHT22;387;48.772;9.186;2023-04-27T15:10:36;19.70;43.00
810;DHT22;387;48.772;9.186;2023-04-27T15:13:01;19.90;42.20
810;DHT22;387;48.772;9.186;2023-04-27T15:15:27;19.80;41.90
810;DHT22;387;48.772;9.186;2023-04-27T15:17:53;19.90;42.00
810;DHT22;387;48.772;9.186;2023-04-27T15:20:18;20.10;41.50
810;DHT22;387;48.772;9.186;2023-04-27T15:22:44;20.20;41.40
810;DHT22;387;48.772;9.186;2023-04-27T15:25:10;20.10;41.60
810;DHT22;387;48.772;9.186;2023-04-27T15:27:36;20.20;42.20
810;DHT22;387;48.772;9.186;2023-04-27T15:30:02;20.20;41.80
810;DHT22;387;48.772;9.186;2023-04-27T15:32:29;19.90;41.90
810;DHT22;387;48.772;9.186;2023-04-27T15:34:58;19.70;42.30
810;DHT22;387;48.772;9.186;2023-04-27T15:37:27;19.40;43.20
810;DHT22;387;48.772;9.186;2023-04-27T15:39:54;19.50;43.40
810;DHT22;387;48.772;9.186;2023-04-27T15:42:20;19.20;43.90
810;DHT22;387;48.772;9.186;2023-04-27T15:44:46;19.20;44.10
810;DHT22;387;48.772;9.186;2023-04-27T15:47:13;19.40;44.10
810;DHT22;387;48.772;9.186;2023-04-27T15:49:39;19.50;44.20
810;DHT22;387;48.772;9.186;2023-04-27T15:52:04;19.30;44.60
810;DHT22;387;48.772;9.186;2023-04-27T15:54:30;19.20;45.10
810;DHT22;387;48.772;9.186;2023-04-27T15:56:56;19.00;45.80
810;DHT22;387;48.772;9.186;2023-04-27T15:59:25;18.90;46.20
810;DHT22;387;48.772;9.186;2023-04-27T16:01:51;18.80;46.20
810;DHT22;387;48.772;9.186;2023-04-27T16:04:17;18.70;45.90
810;DHT22;387;48.772;9.186;2023-04-27T16:06:42;18.70;46.20
810;DHT22;387;48.772;9.186;2023-04-27T16:09:08;18.70;46.30
810;DHT22;387;48.772;9.186;2023-04-27T16:11:36;18.70;46.70
810;DHT22;387;48.772;9.186;2023-04-27T16:14:02;18.80;47.00
810;DHT22;387;48.772;9.186;2023-04-27T16:16:27;19.00;46.60
810;DHT22;387;48.772;9.186;2023-04-27T16:18:53;19.00;46.50
810;DHT22;387;48.772;9.186;2023-04-27T16:21:19;18.80;46.90
810;DHT22;387;48.772;9.186;2023-04-27T16:23:44;18.70;47.50
810;DHT22;387;48.772;9.186;2023-04-27T16:26:10;18.70;47.90
810;DHT22;387;48.772;9.186;2023-04-27T16:28:36;18.70;47.80
810;DHT22;387;48.772;9.186;2023-04-27T16:31:01;18.50;47.80
810;DHT22;387;48.772;9.186;2023-04-27T16:33:27;18.60;48.30
810;DHT22;387;48.772;9.186;2023-04-27T16:35:52;18.50;48.30
810;DHT22;387;48.772;9.186;2023-04-27T16:38:19;18.70;48.20
810;DHT22;387;48.772;9.186;2023-04-27T16:40:44;18.80;48.10
810;DHT22;387;48.772;9.186;2023-04-27T16:43:10;19.00;47.90
810;DHT22;387;48.772;9.186;2023-04-27T16:45:35;19.20;47.40
810;DHT22;387;48.772;9.186;2023-04-27T16:48:02;19.40;46.70